Time;durP1;ratioP1;P1;durP2;ratioP2;P2;SDS_P1;SDS_P2;PMS_P1;PMS_P2;Temp;Humidity;BMP_temperature;BMP_pressure;BME280_temperature;BME280_humidity;BME280_pressure;Samples;Min_cycle;Max_cycle;Signal;HPM_P1;HPM_P2
2023/01/04 00:01:40;;;;;;;3.20;1.97;;;;;;;6.71;84.05;101358.44;5051216;28;20850;-77
2023/01/04 00:04:06;;;;;;;4.37;1.83;;;;;;;6.64;84.61;101346.25;5054364;28;20243;-77
2023/01/04 00:06:34;;;;;;;2.23;2.00;;;;;;;6.67;84.47;101351.47;5055134;28;20363;-77
2023/01/04 00:09:00;;;;;;;2.57;1.90;;;;;;;6.53;84.13;101361.66;5055054;28;20225;-77
2023/01/04 00:11:27;;;;;;;3.17;1.87;;;;;;;6.61;84.46;101340.16;5053906;28;20680;-76
2023/01/04 00:13:57;;;;;;;2.93;2.30;;;;;;;6.62;84.33;101340.19;5054910;28;20231;-77
2023/01/04 00:16:25;;;;;;;3.60;2.30;;;;;;;6.59;83.88;101344.44;5054792;28;20201;-77
2023/01/04 00:18:53;;;;;;;3.97;1.87;;;;;;;6.62;83.99;101331.50;5054671;28;20680;-77
2023/01/04 00:21:21;;;;;;;2.67;2.30;;;;;;;6.64;84.43;101329.78;5054314;28;20205;-77
2023/01/04 00:23:51;;;;;;;3.27;2.17;;;;;;;6.66;84.30;101315.13;5055132;28;20275;-78
2023/01/04 00:26:21;;;;;;;5.60;1.90;;;;;;;6.65;84.02;101313.38;5054851;28;20256;-77
2023/01/04 00:28:47;;;;;;;3.77;2.40;;;;;;;6.49;84.26;101305.44;5054415;28;20263;-77
2023/01/04 00:31:15;;;;;;;4.77;2.30;;;;;;;6.52;85.07;101304.59;5053657;28;20230;-77
2023/01/04 00:33:42;;;;;;;2.90;2.00;;;;;;;6.52;84.65;101286.44;5064243;28;20202;-77
2023/01/04 00:36:10;;;;;;;3.70;2.53;;;;;;;6.47;84.61;101288.13;5074520;28;20628;-77
2023/01/04 00:38:38;;;;;;;3.53;1.97;;;;;;;6.49;85.06;101278.63;5073697;28;20258;-77
2023/01/04 00:41:07;;;;;;;3.13;2.67;;;;;;;6.52;84.21;101279.53;5074252;28;20200;-77
2023/01/04 00:43:33;;;;;;;3.07;2.10;;;;;;;6.54;84.52;101288.22;5074228;28;20727;-77
2023/01/04 00:46:01;;;;;;;3.93;1.90;;;;;;;6.52;83.86;101289.03;5074112;28;20633;-76
2023/01/04 00:48:27;;;;;;;3.57;2.90;;;;;;;6.55;84.24;101278.69;5074204;28;20223;-77
2023/01/04 00:50:53;;;;;;;3.20;2.27;;;;;;;6.58;84.93;101270.97;5074078;28;20229;-77
2023/01/04 00:53:20;;;;;;;2.83;2.53;;;;;;;6.62;84.34;101266.66;5074333;28;20209;-77
2023/01/04 00:55:46;;;;;;;4.10;2.47;;;;;;;6.60;83.86;101273.53;5074122;28;20563;-77
2023/01/04 00:58:14;;;;;;;5.60;3.30;;;;;;;6.64;83.45;101272.72;5074225;28;20258;-77
2023/01/04 01:00:41;;;;;;;6.07;3.00;;;;;;;6.60;83.49;101276.13;5072139;28;20262;-76
2023/01/04 01:03:07;;;;;;;3.67;2.47;;;;;;;6.55;84.07;101278.69;5062415;28;20202;-77
2023/01/04 01:05:35;;;;;;;2.97;2.30;;;;;;;6.43;84.16;101265.59;5071623;28;20225;-77
2023/01/04 01:08:23;;;;;;;5.83;2.93;;;;;;;6.45;85.17;101243.16;5074258;28;20291;-77
2023/01/04 01:10:48;;;;;;;3.37;2.57;;;;;;;6.45;85.05;101219.81;5072667;28;20228;-76
2023/01/04 01:13:16;;;;;;;4.47;3.47;;;;;;;6.41;84.83;101212.84;5073985;28;20262;-77
2023/01/04 01:15:42;;;;;;;2.83;2.40;;;;;;;6.38;85.03;101211.06;5073953;28;20641;-77
2023/01/04 01:18:08;;;;;;;4.50;2.57;;;;;;;6.50;85.04;101207.72;5073808;28;20262;-77
2023/01/04 01:20:35;;;;;;;5.50;2.70;;;;;;;6.48;84.12;101202.56;5073423;28;20228;-77
2023/01/04 01:23:01;;;;;;;5.80;3.27;;;;;;;6.46;84.56;101193.00;5073660;28;20278;-77
2023/01/04 01:25:27;;;;;;;3.13;2.70;;;;;;;6.40;84.85;101192.94;5073362;28;20204;-77
2023/01/04 01:27:54;;;;;;;3.70;2.40;;;;;;;6.33;85.21;101195.47;5073667;28;20208;-77
2023/01/04 01:30:21;;;;;;;4.87;3.23;;;;;;;6.17;85.04;101190.97;5073254;28;20228;-77
2023/01/04 01:32:48;;;;;;;3.93;2.57;;;;;;;6.17;85.38;101180.63;5062859;28;20219;-77
2023/01/04 01:35:14;;;;;;;4.43;2.73;;;;;;;6.31;85.89;101181.63;5068746;28;20640;-77
2023/01/04 01:37:40;;;;;;;5.10;2.23;;;;;;;6.31;85.83;101184.22;5073626;28;20205;-77
2023/01/04 01:40:08;;;;;;;2.97;2.30;;;;;;;6.43;84.63;101182.63;5073280;28;20711;-77
2023/01/04 01:42:34;;;;;;;3.87;2.40;;;;;;;6.48;84.20;101193.88;5073597;28;20204;-77
2023/01/04 01:45:09;;;;;;;2.53;2.13;;;;;;;6.51;84.50;101186.16;5074081;28;20671;-77
2023/01/04 01:47:42;;;;;;;2.70;2.33;;;;;;;6.50;84.23;101186.97;5073612;28;20208;-77
2023/01/04 01:50:22;;;;;;;2.57;2.17;;;;;;;6.58;84.02;101190.56;5072553;28;20699;-77
2023/01/04 01:52:49;;;;;;;2.90;2.10;;;;;;;6.59;83.77;101197.47;5073629;28;20263;-77
2023/01/04 01:55:16;;;;;;;3.40;1.90;;;;;;;6.62;83.34;101207.00;5073775;28;20255;-77
2023/01/04 01:57:46;;;;;;;3.10;1.90;;;;;;;6.54;83.49;101207.81;5073611;28;20211;-77
2023/01/04 02:00:14;;;;;;;3.27;1.70;;;;;;;6.60;82.61;101217.38;5072859;28;20614;-77
2023/01/04 02:02:49;;;;;;;2.53;1.63;;;;;;;6.70;82.96;101215.72;5063531;28;20209;-77
2023/01/04 02:05:17;;;;;;;3.33;2.10;;;;;;;6.70;82.70;101208.81;5068741;28;20209;-77
2023/01/04 02:07:44;;;;;;;6.60;1.70;;;;;;;6.78;82.92;101208.91;5073656;28;20237;-77
2023/01/04 02:10:11;;;;;;;2.90;2.40;;;;;;;6.80;82.20;101206.28;5072602;28;20229;-77
2023/01/04 02:12:38;;;;;;;3.93;1.90;;;;;;;6.74;82.30;101223.56;5072470;28;20209;-77
2023/01/04 02:15:05;;;;;;;4.70;2.00;;;;;;;6.70;82.35;101216.59;5072862;28;20739;-77
2023/01/04 02:17:39;;;;;;;3.57;1.77;;;;;;;6.74;82.14;101215.78;5073018;28;20204;-77
2023/01/04 02:20:21;;;;;;;2.23;1.67;;;;;;;6.85;82.30;101202.88;5073027;28;20229;-77
2023/01/04 02:23:36;;;;;;;2.17;1.97;;;;;;;6.83;82.01;101194.22;5073005;28;20271;-77
2023/01/04 02:26:40;;;;;;;3.70;1.90;;;;;;;6.72;81.10;101190.69;5072697;28;20204;-77
2023/01/04 02:29:48;;;;;;;5.63;2.00;;;;;;;6.82;82.02;101183.81;5072428;28;20281;-77
2023/01/04 02:32:23;;;;;;;5.17;2.17;;;;;;;6.89;81.55;101167.44;5028366;28;20216;-77
2023/01/04 02:34:57;;;;;;;3.87;2.13;;;;;;;6.79;81.62;101145.75;5063989;28;20300;-77
2023/01/04 02:37:34;;;;;;;3.30;2.10;;;;;;;6.80;81.23;101131.94;5072409;28;20258;-77
2023/01/04 02:40:10;;;;;;;1.73;1.63;;;;;;;6.84;81.80;101115.53;5071935;28;20237;-77
2023/01/04 02:45:33;;;;;;;4.33;2.03;;;;;;;6.89;81.85;101110.34;5072450;28;20879;-77
2023/01/04 02:50:52;;;;;;;3.80;2.80;;;;;;;6.92;81.79;101113.00;5048854;28;20240;-77
2023/01/04 02:53:22;;;;;;;3.23;2.23;;;;;;;6.90;82.21;101104.31;5072387;28;20258;-77
2023/01/04 02:55:55;;;;;;;3.30;2.07;;;;;;;6.99;81.77;101088.78;5072051;28;20204;-77
2023/01/04 02:58:56;;;;;;;6.23;2.57;;;;;;;6.96;81.64;101093.97;5071775;28;20737;-77
2023/01/04 03:07:24;;;;;;;2.77;2.07;;;;;;;7.04;80.29;101094.91;5051864;28;20338;-77
2023/01/04 03:09:58;;;;;;;2.53;2.07;;;;;;;7.09;81.01;101103.56;5056087;28;20236;-75
2023/01/04 03:12:34;;;;;;;2.27;2.00;;;;;;;7.11;80.88;101096.66;5057469;28;20213;-77
2023/01/04 03:15:08;;;;;;;2.63;2.10;;;;;;;7.11;80.21;101098.38;5057895;28;20715;-77
2023/01/04 03:17:41;;;;;;;2.57;2.23;;;;;;;7.11;80.63;101098.38;5058221;28;20205;-77
2023/01/04 03:20:12;;;;;;;3.50;2.07;;;;;;;7.19;80.40;101086.31;5055602;28;20229;-77
2023/01/04 03:36:45;;;;;;;5.87;2.17;;;;;;;7.32;79.84;101056.09;5072211;28;20202;-77
2023/01/04 03:50:46;;;;;;;2.87;1.67;;;;;;;7.44;80.87;101009.38;5072137;28;20266;-77
2023/01/04 03:53:15;;;;;;;2.67;1.77;;;;;;;7.43;81.27;100976.47;5073195;28;20204;-77
2023/01/04 03:55:43;;;;;;;2.30;1.97;;;;;;;7.43;82.18;100958.28;5072832;28;20208;-77
2023/01/04 03:58:10;;;;;;;2.90;1.70;;;;;;;7.47;82.25;100915.91;5073230;28;20749;-77
2023/01/04 04:00:37;;;;;;;3.07;1.90;;;;;;;7.51;84.15;100875.19;5072434;28;20232;-77
2023/01/04 04:03:11;;;;;;;2.93;1.70;;;;;;;7.54;83.75;100868.25;5060636;28;20220;-77
2023/01/04 04:08:25;;;;;;;3.63;1.60;;;;;;;7.53;84.99;100811.09;5073746;28;20255;-77
2023/01/04 04:10:52;;;;;;;4.73;1.90;;;;;;;7.52;86.08;100786.88;5072317;28;20236;-77
2023/01/04 04:13:18;;;;;;;2.00;1.57;;;;;;;7.54;85.89;100756.56;5077507;28;20205;-77
2023/01/04 04:15:45;;;;;;;3.50;1.90;;;;;;;7.56;86.26;100761.75;5077416;28;20209;-77
2023/01/04 04:18:11;;;;;;;3.10;2.03;;;;;;;7.51;86.91;100734.91;5077369;28;20206;-77
2023/01/04 04:20:38;;;;;;;2.63;1.80;;;;;;;7.56;87.88;100709.81;5077345;28;20220;-77
2023/01/04 04:23:04;;;;;;;2.67;2.27;;;;;;;7.61;86.84;100702.00;5077194;28;20205;-77
2023/01/04 04:25:31;;;;;;;4.93;1.90;;;;;;;7.53;88.06;100676.91;5077359;28;20231;-77
2023/01/04 04:27:58;;;;;;;3.60;2.27;;;;;;;7.50;88.80;100657.88;5077398;28;20679;-77
2023/01/04 04:30:24;;;;;;;1.83;1.67;;;;;;;7.45;89.17;100628.44;5077131;28;20225;-77
2023/01/04 04:32:50;;;;;;;1.93;1.80;;;;;;;7.44;89.48;100630.19;5065831;28;20751;-77
2023/01/04 04:35:17;;;;;;;3.20;2.17;;;;;;;7.51;89.32;100621.53;5071710;28;20225;-77
2023/01/04 04:37:43;;;;;;;2.80;2.00;;;;;;;7.41;89.33;100617.19;5076947;28;20564;-77
2023/01/04 04:41:37;;;;;;;3.37;1.70;;;;;;;7.41;90.24;100600.75;5076443;28;20285;-77
2023/01/04 04:42:58;;;;;;;3.53;1.87;;;;;;;7.38;91.11;100567.88;5076668;28;20241;-77
2023/01/04 04:45:24;;;;;;;5.67;2.30;;;;;;;7.44;92.02;100541.88;5076719;28;20208;-77
2023/01/04 04:47:50;;;;;;;3.37;1.63;;;;;;;7.36;92.47;100517.69;5076321;28;20208;-77
2023/01/04 04:50:17;;;;;;;2.00;1.90;;;;;;;7.30;93.05;100503.00;5076101;28;20221;-77
2023/01/04 04:52:43;;;;;;;3.03;2.40;;;;;;;7.31;94.39;100472.69;5075692;28;20258;-77
2023/01/04 04:55:09;;;;;;;2.17;1.97;;;;;;;7.31;94.63;100450.22;5076740;28;20205;-77
2023/01/04 04:57:36;;;;;;;2.80;2.03;;;;;;;7.41;94.25;100442.34;5076167;28;20258;-77
2023/01/04 05:00:04;;;;;;;2.97;1.73;;;;;;;7.30;95.41;100440.69;5075572;28;20293;-77
2023/01/04 05:02:31;;;;;;;2.93;1.70;;;;;;;7.36;95.15;100434.59;5067519;28;20212;-77
2023/01/04 05:04:57;;;;;;;4.07;2.07;;;;;;;7.36;95.50;100430.25;5068503;28;20618;-77
2023/01/04 05:07:23;;;;;;;2.43;2.00;;;;;;;7.37;96.02;100418.13;5076075;28;20209;-77
2023/01/04 05:09:50;;;;;;;3.10;1.70;;;;;;;7.36;96.36;100409.47;5075947;28;20649;-76
2023/01/04 05:15:00;;;;;;;2.53;1.70;;;;;;;7.42;95.35;100418.13;5075789;28;20212;-77
2023/01/04 05:17:27;;;;;;;1.43;1.33;;;;;;;7.44;94.50;100421.56;5075608;28;20266;-77
2023/01/04 05:19:54;;;;;;;3.63;1.53;;;;;;;7.49;95.34;100412.88;5075344;28;20228;-77
2023/01/04 05:22:20;;;;;;;3.53;2.00;;;;;;;7.54;94.78;100411.09;5075445;28;20254;-77
2023/01/04 05:24:46;;;;;;;2.33;1.80;;;;;;;7.55;94.77;100405.03;5074874;28;20205;-77
2023/01/04 05:27:13;;;;;;;2.93;1.60;;;;;;;7.58;95.26;100398.09;5075719;28;20277;-77
2023/01/04 05:32:23;;;;;;;2.10;1.37;;;;;;;7.51;93.93;100415.44;5067249;28;20236;-77
2023/01/04 05:34:50;;;;;;;1.93;1.70;;;;;;;7.56;94.57;100403.28;5066660;28;20209;-77
2023/01/04 05:37:17;;;;;;;1.90;1.67;;;;;;;7.61;94.24;100400.66;5074750;28;20621;-77
2023/01/04 05:39:43;;;;;;;1.70;1.60;;;;;;;7.62;94.17;100389.41;5074954;28;20229;-77
2023/01/04 05:42:24;;;;;;;2.47;1.70;;;;;;;7.53;94.10;100387.72;5074344;28;20201;-77
2023/01/04 05:44:51;;;;;;;2.03;1.43;;;;;;;7.62;94.82;100366.88;5075372;28;20208;-77
2023/01/04 05:47:17;;;;;;;1.70;1.53;;;;;;;7.65;95.05;100350.41;5075018;28;20208;-77
2023/01/04 05:49:44;;;;;;;1.73;1.50;;;;;;;7.67;94.02;100351.25;5074889;28;20641;-76
2023/01/04 05:52:11;;;;;;;2.10;1.53;;;;;;;7.67;95.11;100346.94;5075120;28;20647;-77
2023/01/04 05:54:38;;;;;;;3.93;1.60;;;;;;;7.68;95.48;100325.25;5075656;28;20637;-77
2023/01/04 05:57:04;;;;;;;2.37;1.50;;;;;;;7.72;95.86;100292.31;5075683;28;20624;-77
2023/01/04 05:59:31;;;;;;;1.87;1.33;;;;;;;7.69;95.98;100269.84;5095361;22;20258;-81
2023/01/04 06:01:58;;;;;;;2.53;1.50;;;;;;;7.62;97.55;100262.13;5045135;28;20218;-81
2023/01/04 06:04:24;;;;;;;1.40;1.30;;;;;;;7.61;97.97;100239.59;5046233;28;20235;-81
2023/01/04 06:06:50;;;;;;;2.17;1.53;;;;;;;7.62;98.00;100244.78;5047614;28;20201;-80
2023/01/04 06:09:18;;;;;;;1.87;1.40;;;;;;;7.60;98.81;100219.72;5055675;28;20209;-79
2023/01/04 06:11:44;;;;;;;1.50;1.13;;;;;;;7.49;99.38;100212.91;5035024;28;20226;-81
2023/01/04 06:14:11;;;;;;;1.70;1.60;;;;;;;7.55;99.26;100194.66;5035560;28;20210;-80
2023/01/04 06:16:37;;;;;;;2.67;1.57;;;;;;;7.59;99.09;100190.28;5023630;28;20670;-80
2023/01/04 06:19:04;;;;;;;1.93;1.83;;;;;;;7.62;99.22;100198.03;5027806;28;20282;-80
2023/01/04 06:21:30;;;;;;;1.33;1.23;;;;;;;7.56;99.15;100180.78;5034167;28;20296;-80
2023/01/04 06:23:57;;;;;;;1.60;1.50;;;;;;;7.53;98.97;100204.19;5034045;28;20260;-79
2023/01/04 06:26:24;;;;;;;1.57;1.20;;;;;;;7.61;99.62;100175.56;5034386;28;20213;-80
2023/01/04 06:28:51;;;;;;;1.53;1.40;;;;;;;7.63;99.65;100191.97;5034884;28;20259;-79
2023/01/04 06:31:17;;;;;;;2.30;1.30;;;;;;;7.59;98.42;100187.69;5034122;28;20279;-79
2023/01/04 06:33:43;;;;;;;1.40;1.30;;;;;;;7.67;98.86;100192.78;5034905;28;20206;-81
2023/01/04 06:36:10;;;;;;;1.53;1.43;;;;;;;7.66;98.28;100181.53;5033542;28;20253;-80
2023/01/04 06:38:36;;;;;;;1.90;1.30;;;;;;;7.71;98.56;100184.06;5034097;28;20731;-79
2023/01/04 06:41:02;;;;;;;1.43;1.33;;;;;;;7.75;97.75;100173.66;5033902;28;20280;-80
2023/01/04 06:43:30;;;;;;;1.40;1.23;;;;;;;7.72;97.16;100222.19;5033986;28;20578;-79
2023/01/04 06:45:56;;;;;;;2.03;1.30;;;;;;;7.82;97.45;100209.94;5033028;28;20895;-79
2023/01/04 06:48:23;;;;;;;1.40;1.27;;;;;;;7.82;97.18;100208.19;5022248;28;20264;-79
2023/01/04 06:50:49;;;;;;;1.50;1.40;;;;;;;7.90;96.85;100219.38;5032910;28;20226;-82
2023/01/04 06:53:15;;;;;;;1.50;1.40;;;;;;;7.93;96.75;100214.16;5031561;28;20698;-83
2023/01/04 06:55:43;;;;;;;2.17;1.40;;;;;;;7.98;97.09;100211.47;5012846;28;20206;-79
2023/01/04 06:58:09;;;;;;;1.10;1.00;;;;;;;8.01;97.17;100215.78;5013516;28;20195;-80
2023/01/04 07:00:37;;;;;;;2.87;1.20;;;;;;;7.99;97.11;100204.53;5002569;28;20733;-82
2023/01/04 07:03:03;;;;;;;0.93;0.93;;;;;;;8.00;96.74;100219.25;5003148;28;20203;-79
2023/01/04 07:05:30;;;;;;;1.80;1.37;;;;;;;8.02;96.20;100213.16;5005332;28;20249;-82
2023/01/04 07:07:59;;;;;;;1.30;1.10;;;;;;;8.09;96.65;100216.56;5003480;28;20203;-81
2023/01/04 07:10:25;;;;;;;1.07;1.00;;;;;;;8.08;96.75;100227.84;5003177;28;20254;-81
2023/01/04 07:12:52;;;;;;;1.20;1.10;;;;;;;8.04;96.80;100223.56;5004939;28;20708;-80
2023/01/04 07:15:18;;;;;;;1.97;1.27;;;;;;;8.11;96.85;100222.59;5003815;28;20207;-80
2023/01/04 07:17:48;;;;;;;2.10;1.20;;;;;;;8.15;96.28;100221.69;5007658;28;20235;-80
2023/01/04 07:20:15;;;;;;;2.67;1.10;;;;;;;8.22;96.14;100240.66;5004869;28;20219;-82
2023/01/04 07:22:42;;;;;;;1.20;1.07;;;;;;;8.28;96.44;100238.81;5003132;28;20195;-80
2023/01/04 07:25:09;;;;;;;1.37;1.20;;;;;;;8.30;96.25;100237.06;5004629;28;20677;-80
2023/01/04 07:27:35;;;;;;;1.47;1.20;;;;;;;8.33;95.67;100242.25;5004929;28;20222;-80
2023/01/04 07:30:01;;;;;;;2.00;1.10;;;;;;;8.35;95.94;100224.88;5003496;28;20231;-81
2023/01/04 07:32:27;;;;;;;1.97;1.03;;;;;;;8.37;95.43;100221.41;5003162;28;20361;-81
2023/01/04 07:34:55;;;;;;;1.20;1.10;;;;;;;8.39;95.50;100223.09;5002849;28;20250;-82
2023/01/04 07:37:21;;;;;;;1.23;1.13;;;;;;;8.41;95.83;100210.97;5003973;28;20210;-82
2023/01/04 07:39:48;;;;;;;1.03;1.03;;;;;;;8.46;96.00;100210.91;5004456;28;20227;-80
2023/01/04 07:42:15;;;;;;;1.63;1.00;;;;;;;8.37;95.54;100214.47;5005082;28;20222;-80
2023/01/04 07:44:41;;;;;;;1.10;0.90;;;;;;;8.39;96.24;100202.28;5004201;28;20670;-81
2023/01/04 07:47:07;;;;;;;0.90;0.90;;;;;;;8.47;96.06;100189.22;5011116;28;20260;-81
2023/01/04 07:49:33;;;;;;;0.77;0.77;;;;;;;8.51;95.18;100191.75;5011882;28;20207;-80
2023/01/04 07:52:01;;;;;;;1.67;0.80;;;;;;;8.52;95.16;100213.41;5007865;28;20223;-81
2023/01/04 07:54:28;;;;;;;1.70;1.13;;;;;;;8.49;95.56;100209.13;5006929;28;20211;-80
2023/01/04 07:56:54;;;;;;;0.87;0.87;;;;;;;8.52;95.14;100205.59;5009218;28;20202;-81
2023/01/04 07:59:21;;;;;;;0.80;0.73;;;;;;;8.65;94.69;100207.16;5007713;28;20261;-80
2023/01/04 08:01:49;;;;;;;0.80;0.70;;;;;;;8.57;94.87;100224.63;5013703;28;20207;-80
2023/01/04 08:04:16;;;;;;;0.80;0.80;;;;;;;8.59;94.62;100225.47;5017973;28;20207;-80
2023/01/04 08:06:45;;;;;;;0.63;0.60;;;;;;;8.68;94.88;100237.47;5015250;28;20204;-80
2023/01/04 08:09:13;;;;;;;0.73;0.73;;;;;;;8.67;94.94;100235.75;5013536;28;20207;-80
2023/01/04 08:11:40;;;;;;;1.60;1.00;;;;;;;8.68;95.09;100245.28;5009262;28;20227;-79
2023/01/04 08:14:07;;;;;;;1.17;0.97;;;;;;;8.71;94.68;100233.06;5007142;28;20222;-78
2023/01/04 08:16:35;;;;;;;0.83;0.83;;;;;;;8.68;94.85;100264.38;5009330;28;20276;-81
2023/01/04 08:19:03;;;;;;;0.77;0.77;;;;;;;8.78;94.97;100246.00;5013949;28;20265;-80
2023/01/04 08:21:31;;;;;;;1.53;1.00;;;;;;;8.78;95.29;100253.81;5002940;28;20219;-82
2023/01/04 08:23:58;;;;;;;1.10;0.70;;;;;;;8.77;95.10;100241.69;5000250;28;20211;-82
2023/01/04 08:26:27;;;;;;;1.27;0.70;;;;;;;8.85;95.12;100226.81;4998936;28;20287;-82
2023/01/04 08:28:55;;;;;;;0.90;0.70;;;;;;;8.80;95.62;100228.63;5001087;28;20219;-80
2023/01/04 08:31:23;;;;;;;1.00;0.83;;;;;;;8.85;95.54;100229.41;5000060;28;20239;-83
2023/01/04 08:33:51;;;;;;;1.03;0.80;;;;;;;8.79;95.74;100222.56;5001433;28;20204;-79
2023/01/04 08:36:19;;;;;;;1.73;0.97;;;;;;;8.83;95.76;100212.97;4998941;28;20673;-81
2023/01/04 08:38:46;;;;;;;1.57;0.80;;;;;;;8.79;96.20;100200.88;4997767;28;20332;-80
2023/01/04 08:41:13;;;;;;;0.87;0.87;;;;;;;8.83;95.76;100155.72;4996874;28;20231;-81
2023/01/04 08:43:41;;;;;;;1.27;0.80;;;;;;;8.82;96.78;100173.06;4996976;28;20254;-80
2023/01/04 08:46:08;;;;;;;1.80;0.70;;;;;;;8.81;97.91;100173.09;4999544;28;20262;-80
2023/01/04 08:48:35;;;;;;;0.90;0.80;;;;;;;8.80;98.50;100150.53;5025112;28;20198;-81
2023/01/04 08:51:04;;;;;;;0.93;0.90;;;;;;;8.74;98.14;100157.59;5035862;28;20222;-81
2023/01/04 08:53:31;;;;;;;0.70;0.70;;;;;;;8.70;98.00;100140.31;5035337;28;20241;-82
2023/01/04 08:55:59;;;;;;;0.80;0.80;;;;;;;8.75;98.08;100153.22;5035704;28;20240;-81
2023/01/04 08:58:26;;;;;;;2.07;0.90;;;;;;;8.71;98.24;100161.97;5035782;28;20206;-82
2023/01/04 09:00:54;;;;;;;1.07;0.97;;;;;;;8.69;98.20;100155.94;5036287;28;20241;-83
2023/01/04 09:03:20;;;;;;;1.47;0.70;;;;;;;8.73;98.37;100145.44;5036976;28;20206;-83
2023/01/04 09:05:46;;;;;;;0.97;0.90;;;;;;;8.71;99.91;100134.19;5036452;28;20206;-82
2023/01/04 09:08:13;;;;;;;0.80;0.80;;;;;;;8.67;100.00;100111.72;5035160;28;20206;-81
2023/01/04 09:10:39;;;;;;;0.90;0.90;;;;;;;8.59;100.00;100079.78;5034809;28;20225;-80
2023/01/04 09:13:06;;;;;;;1.80;1.17;;;;;;;8.51;100.00;100081.63;5037069;28;20226;-79
2023/01/04 09:15:33;;;;;;;1.20;1.10;;;;;;;8.52;100.00;100050.41;5038010;28;20213;-81
2023/01/04 09:18:00;;;;;;;1.27;0.90;;;;;;;8.42;100.00;100029.75;5028408;28;20272;-80
2023/01/04 09:20:27;;;;;;;7.90;1.10;;;;;;;8.43;100.00;100053.16;5033116;28;20225;-80
2023/01/04 09:22:53;;;;;;;1.20;1.00;;;;;;;8.43;100.00;100049.69;5024886;28;20203;-79
2023/01/04 09:25:19;;;;;;;1.03;0.90;;;;;;;8.47;100.00;100038.34;5037954;28;20202;-80
2023/01/04 09:27:46;;;;;;;1.10;1.00;;;;;;;8.38;100.00;100046.28;5038171;28;20205;-82
2023/01/04 09:30:13;;;;;;;0.80;0.80;;;;;;;8.34;100.00;100033.34;5029291;28;20227;-80
2023/01/04 09:32:39;;;;;;;1.10;1.00;;;;;;;8.32;100.00;100016.91;5017450;28;20218;-78
2023/01/04 09:35:08;;;;;;;1.03;0.87;;;;;;;8.36;100.00;100017.69;5013783;28;20199;-81
2023/01/04 09:37:34;;;;;;;0.90;0.90;;;;;;;8.42;100.00;100017.59;5017432;28;20221;-79
2023/01/04 09:40:00;;;;;;;0.80;0.80;;;;;;;8.51;100.00;100032.22;5016250;28;20297;-79
2023/01/04 09:42:31;;;;;;;2.07;1.00;;;;;;;8.55;100.00;100042.53;5015482;28;20237;-82
2023/01/04 09:45:03;;;;;;;0.77;0.77;;;;;;;8.58;100.00;100045.97;5016224;28;20257;-80
2023/01/04 09:47:36;;;;;;;0.87;0.70;;;;;;;8.65;100.00;100047.59;5015811;28;20269;-80
2023/01/04 09:50:10;;;;;;;1.07;0.90;;;;;;;8.65;100.00;100066.66;5015093;28;20787;-81
2023/01/04 09:53:01;;;;;;;1.83;1.10;;;;;;;8.74;100.00;100074.31;5014468;28;20317;-82
2023/01/04 09:55:31;;;;;;;0.80;0.80;;;;;;;8.75;100.00;100085.56;5014859;28;20700;-82
2023/01/04 09:58:02;;;;;;;0.80;0.80;;;;;;;8.72;100.00;100089.09;5014305;28;20728;-81
2023/01/04 10:00:33;;;;;;;0.77;0.77;;;;;;;8.79;100.00;100089.84;5013820;28;20585;-82
2023/01/04 10:03:07;;;;;;;0.80;0.80;;;;;;;8.83;100.00;100101.91;5014725;28;20258;-81
2023/01/04 10:05:34;;;;;;;1.10;0.80;;;;;;;8.82;100.00;100094.13;5014895;28;20207;-81
2023/01/04 10:08:02;;;;;;;2.00;0.80;;;;;;;8.86;100.00;100096.66;5015043;28;20583;-82
2023/01/04 10:10:46;;;;;;;1.43;0.60;;;;;;;8.90;100.00;100092.22;5013576;28;20261;-81
2023/01/04 10:13:23;;;;;;;0.97;0.77;;;;;;;8.93;100.00;100110.41;5020639;28;20224;-80
2023/01/04 10:15:58;;;;;;;0.90;0.90;;;;;;;8.90;100.00;100105.25;5027935;28;20202;-81
2023/01/04 10:18:36;;;;;;;0.60;0.60;;;;;;;8.98;100.00;100098.19;5039017;28;20265;-79
2023/01/04 10:21:21;;;;;;;0.60;0.40;;;;;;;9.02;100.00;100119.78;5035180;28;20273;-82
2023/01/04 10:23:58;;;;;;;0.50;0.50;;;;;;;9.11;100.00;100125.69;5038081;28;20202;-81
2023/01/04 10:26:30;;;;;;;0.90;0.63;;;;;;;9.07;100.00;100137.06;5036241;28;20213;-83
2023/01/04 10:29:32;;;;;;;0.70;0.70;;;;;;;9.13;100.00;100141.31;5036117;28;20630;-83
2023/01/04 10:32:04;;;;;;;0.70;0.70;;;;;;;9.19;100.00;100141.19;5034016;28;20736;-83
2023/01/04 10:34:37;;;;;;;0.83;0.50;;;;;;;9.21;100.00;100110.78;5035370;28;20202;-82
2023/01/04 10:37:20;;;;;;;0.90;0.90;;;;;;;9.20;100.00;100119.50;5035926;28;20237;-81
2023/01/04 10:39:51;;;;;;;0.50;0.50;;;;;;;9.10;100.00;100107.53;5034370;28;20236;-82
2023/01/04 10:42:30;;;;;;;0.70;0.70;;;;;;;9.08;100.00;100091.06;5030531;28;20273;-82
2023/01/04 10:45:07;;;;;;;0.60;0.60;;;;;;;9.02;100.00;100068.63;5016168;28;20199;-85
2023/01/04 10:47:40;;;;;;;0.50;0.50;;;;;;;8.94;100.00;100050.53;5014789;28;20213;-83
2023/01/04 10:50:14;;;;;;;0.50;0.50;;;;;;;8.94;100.00;100031.47;5015545;28;20436;-83
2023/01/04 10:52:45;;;;;;;0.70;0.70;;;;;;;9.03;100.00;100022.59;5014646;28;20272;-82
2023/01/04 10:55:19;;;;;;;1.00;0.90;;;;;;;9.03;100.00;100013.03;5016069;28;20562;-82
2023/01/04 10:57:53;;;;;;;1.17;0.70;;;;;;;9.01;100.00;99991.38;5015097;28;20290;-83
2023/01/04 11:00:23;;;;;;;1.17;0.63;;;;;;;8.86;100.00;99983.88;5014572;28;20235;-82
2023/01/04 11:02:55;;;;;;;1.90;0.90;;;;;;;8.91;100.00;99969.88;5018553;28;20203;-82
2023/01/04 11:05:25;;;;;;;0.80;0.80;;;;;;;8.85;100.00;99966.56;5017179;28;20211;-85
2023/01/04 11:07:57;;;;;;;0.60;0.60;;;;;;;8.92;100.00;99973.38;5015133;28;20257;-85
2023/01/04 11:10:28;;;;;;;0.77;0.70;;;;;;;8.91;100.00;99977.69;5015060;28;20717;-85
2023/01/04 11:12:54;;;;;;;1.63;0.80;;;;;;;8.98;100.00;99970.63;5017900;28;20218;-82
2023/01/04 11:15:20;;;;;;;0.73;0.63;;;;;;;8.99;100.00;99974.09;5026175;28;20902;-84
2023/01/04 11:17:48;;;;;;;0.70;0.70;;;;;;;9.07;100.00;99970.44;5034597;28;20206;-83
2023/01/04 11:20:14;;;;;;;0.77;0.70;;;;;;;9.10;100.00;99979.94;5033878;28;20287;-84
2023/01/04 11:22:46;;;;;;;0.70;0.70;;;;;;;9.08;100.00;99979.97;5033339;28;20203;-80
2023/01/04 11:25:18;;;;;;;1.47;0.70;;;;;;;9.20;100.00;99991.03;5028318;28;20684;-82
2023/01/04 11:27:51;;;;;;;0.80;0.80;;;;;;;9.23;100.00;99993.56;5005634;28;20733;-81
2023/01/04 11:30:22;;;;;;;0.47;0.47;;;;;;;9.27;100.00;99985.63;5002800;28;20228;-83
2023/01/04 11:32:56;;;;;;;0.70;0.70;;;;;;;9.27;100.00;99988.25;5011808;28;20269;-82
2023/01/04 11:35:41;;;;;;;2.10;0.60;;;;;;;9.20;100.00;99991.03;5017233;28;20229;-82
2023/01/04 11:38:11;;;;;;;0.80;0.80;;;;;;;9.26;100.00;99991.75;5020733;28;20214;-81
2023/01/04 11:40:42;;;;;;;0.60;0.60;;;;;;;9.22;100.00;99984.91;5017763;28;20261;-80
2023/01/04 11:43:17;;;;;;;0.60;0.60;;;;;;;9.27;100.00;99984.78;5017344;28;20229;-79
2023/01/04 11:45:53;;;;;;;0.67;0.60;;;;;;;9.34;100.00;99983.78;5025768;28;20202;-79
2023/01/04 11:48:31;;;;;;;0.80;0.40;;;;;;;9.31;100.00;99995.09;5016768;28;20206;-80
2023/01/04 11:50:57;;;;;;;0.80;0.57;;;;;;;9.34;100.00;99984.63;5017305;28;20280;-80
2023/01/04 11:53:30;;;;;;;1.17;0.40;;;;;;;9.41;100.00;99989.72;5017002;28;20230;-80
2023/01/04 11:56:28;;;;;;;0.93;0.50;;;;;;;9.37;100.00;99988.06;5017061;28;20202;-80
2023/01/04 11:59:12;;;;;;;1.23;0.57;;;;;;;9.36;100.00;99984.59;5004077;28;20585;-80
2023/01/04 12:01:41;;;;;;;0.60;0.60;;;;;;;9.36;100.00;99994.19;5016528;28;20246;-80
2023/01/04 12:04:13;;;;;;;0.70;0.70;;;;;;;9.38;100.00;99981.97;5018270;28;20298;-81
2023/01/04 12:06:45;;;;;;;0.50;0.50;;;;;;;9.37;100.00;99995.88;5016650;28;20203;-79
2023/01/04 12:09:13;;;;;;;0.40;0.40;;;;;;;9.41;100.00;99971.47;5015506;28;20210;-82
2023/01/04 12:11:45;;;;;;;1.07;0.50;;;;;;;9.37;100.00;99982.84;5012806;28;20261;-80
2023/01/04 12:14:19;;;;;;;0.47;0.47;;;;;;;9.39;100.00;99973.25;5015870;28;20219;-82
2023/01/04 12:16:51;;;;;;;1.00;0.40;;;;;;;9.41;100.00;99981.91;5031912;28;20271;-81
2023/01/04 12:19:21;;;;;;;0.40;0.40;;;;;;;9.39;100.00;99970.66;5032819;28;20935;-82
2023/01/04 12:21:51;;;;;;;0.80;0.50;;;;;;;9.40;100.00;99970.63;5032830;28;20277;-83
2023/01/04 12:24:21;;;;;;;0.40;0.40;;;;;;;9.51;100.00;99971.25;5033517;28;20345;-83
2023/01/04 12:26:50;;;;;;;0.47;0.47;;;;;;;9.50;100.00;99968.69;5033546;28;20206;-83
2023/01/04 12:29:53;;;;;;;0.50;0.47;;;;;;;9.58;100.00;99958.94;5033164;28;20241;-81